createdAt,value
2023-01-28T00:00:09.654Z,100988.13
2023-01-28T00:02:37.095Z,100990.53
2023-01-28T00:05:04.993Z,100988.41
2023-01-28T00:07:32.306Z,100990.81
2023-01-28T00:09:59.634Z,100987.06
2023-01-28T00:12:27.178Z,100988.72
2023-01-28T00:14:54.504Z,100982.53
2023-01-28T00:17:21.896Z,100976.88
2023-01-28T00:19:49.322Z,100986.03
2023-01-28T00:22:16.695Z,100979.84
2023-01-28T00:24:44.648Z,100991.97
2023-01-28T00:27:12.754Z,100990.34
2023-01-28T00:29:41.235Z,100994.66
2023-01-28T00:32:08.628Z,101000.31
2023-01-28T00:34:36.062Z,101001.63
2023-01-28T00:37:07.479Z,101001.41
2023-01-28T00:39:34.948Z,101000.03
2023-01-28T00:42:02.257Z,101005.97
2023-01-28T00:44:29.638Z,101013.22
2023-01-28T00:46:57.244Z,101008.94
2023-01-28T00:49:43.061Z,101008.94
2023-01-28T00:52:10.358Z,101010.28
2023-01-28T00:54:37.959Z,101010.53
2023-01-28T00:57:05.300Z,101009.72
2023-01-28T00:59:32.649Z,101006.81
2023-01-28T01:02:12.314Z,101010.81
2023-01-28T01:04:40.985Z,101008.41
2023-01-28T01:07:08.335Z,101009.50
2023-01-28T01:09:35.689Z,101013.25
2023-01-28T01:12:04.007Z,101020.50
2023-01-28T01:14:31.508Z,101023.47
2023-01-28T01:16:58.856Z,101017.00
2023-01-28T01:19:28.349Z,101022.97
2023-01-28T01:21:57.046Z,101017.59
2023-01-28T01:24:24.456Z,101029.69
2023-01-28T01:26:52.195Z,101024.84
2023-01-28T01:29:19.483Z,101021.31
2023-01-28T01:31:46.836Z,101021.31
2023-01-28T01:34:14.872Z,101018.91
2023-01-28T01:36:44.023Z,101011.63
2023-01-28T01:39:14.546Z,101014.06
2023-01-28T01:41:41.899Z,101019.16
2023-01-28T01:44:47.150Z,101020.47
2023-01-28T01:47:16.876Z,101021.28
2023-01-28T01:49:44.832Z,101022.34
2023-01-28T01:52:19.596Z,101025.84
2023-01-28T01:54:50.628Z,101027.47
2023-01-28T01:57:24.403Z,101023.47
2023-01-28T01:59:52.191Z,101019.41
2023-01-28T02:02:19.738Z,101025.66
2023-01-28T02:04:47.109Z,101026.44
2023-01-28T02:07:19.537Z,101026.16
2023-01-28T02:09:47.186Z,101029.94
2023-01-28T02:12:20.729Z,101024.53
2023-01-28T02:15:10.118Z,101018.34
2023-01-28T02:17:38.439Z,101026.69
2023-01-28T02:20:12.708Z,101024.78
2023-01-28T02:23:09.159Z,101021.84
2023-01-28T02:26:04.898Z,101020.50
2023-01-28T02:28:42.175Z,101029.38
2023-01-28T02:31:22.200Z,101022.41
2023-01-28T02:34:19.734Z,101026.69
2023-01-28T02:36:51.351Z,101021.88
2023-01-28T02:39:27.098Z,101025.66
2023-01-28T02:42:02.066Z,101031.56
2023-01-28T02:44:29.539Z,101029.38
2023-01-28T02:47:15.519Z,101029.38
2023-01-28T02:49:50.004Z,101026.41
2023-01-28T02:52:46.431Z,101024.25
2023-01-28T02:55:32.555Z,101023.97
2023-01-28T02:58:11.796Z,101019.34
2023-01-28T03:01:17.009Z,101020.16
2023-01-28T03:04:02.948Z,101015.06
2023-01-28T03:06:39.727Z,101016.41
2023-01-28T03:09:24.225Z,101010.50
2023-01-28T03:12:51.237Z,101003.25
2023-01-28T03:15:44.630Z,100993.25
2023-01-28T03:18:34.816Z,101001.84
2023-01-28T03:21:33.469Z,100994.88
2023-01-28T03:24:51.059Z,100991.59
2023-01-28T03:27:46.211Z,100994.53
2023-01-28T03:30:46.786Z,100984.06
2023-01-28T03:33:43.840Z,100976.53
2023-01-28T03:36:30.402Z,100977.63
2023-01-28T03:38:58.646Z,100974.91
2023-01-28T03:41:27.039Z,100966.84
2023-01-28T03:43:56.547Z,100973.09
2023-01-28T03:46:24.342Z,100967.47
2023-01-28T03:48:52.012Z,100974.69
2023-01-28T03:51:19.858Z,100981.97
2023-01-28T03:53:47.812Z,100982.19
2023-01-28T03:56:18.495Z,101000.25
2023-01-28T03:58:52.974Z,101009.66
2023-01-28T04:01:21.378Z,101005.34
2023-01-28T04:03:49.341Z,101002.91
2023-01-28T04:06:23.144Z,101000.47
2023-01-28T04:08:53.572Z,100998.81
2023-01-28T04:11:32.200Z,101005.31
2023-01-28T04:14:02.744Z,101012.28
2023-01-28T04:16:42.786Z,101005.56
2023-01-28T04:19:12.380Z,101024.13
2023-01-28T04:21:40.121Z,101019.50
2023-01-28T04:24:08.031Z,101010.06
2023-01-28T04:26:36.279Z,101013.88
2023-01-28T04:29:04.993Z,101027.59
2023-01-28T04:31:34.988Z,101031.88
2023-01-28T04:34:21.144Z,101039.69
2023-01-28T04:36:54.861Z,101045.63
2023-01-28T04:39:42.554Z,101037.53
2023-01-28T04:42:39.557Z,101034.84
2023-01-28T04:45:12.044Z,101033.50
2023-01-28T04:47:59.837Z,101036.50
2023-01-28T04:50:45.846Z,101031.72
2023-01-28T04:53:27.298Z,101029.22
2023-01-28T04:55:58.892Z,101041.91
2023-01-28T04:58:28.812Z,101047.53
2023-01-28T05:01:01.121Z,101051.78
2023-01-28T05:03:28.934Z,101055.16
2023-01-28T05:05:56.541Z,101052.44
2023-01-28T05:08:39.827Z,101054.09
2023-01-28T05:11:07.514Z,101055.00
2023-01-28T05:13:35.193Z,101056.13
2023-01-28T05:16:04.385Z,101067.13
2023-01-28T05:18:31.936Z,101054.47
2023-01-28T05:21:09.811Z,101070.59
2023-01-28T05:23:39.896Z,101078.16
2023-01-28T05:26:07.388Z,101072.13
2023-01-28T05:28:53.531Z,101073.22
2023-01-28T05:31:21.062Z,101070.84
2023-01-28T05:33:48.712Z,101079.44
2023-01-28T05:36:17.169Z,101085.03
2023-01-28T05:38:44.756Z,101083.59
2023-01-28T05:41:12.769Z,101076.84
2023-01-28T05:43:41.556Z,101077.31
2023-01-28T05:46:20.964Z,101091.47
2023-01-28T05:49:18.712Z,101093.06
2023-01-28T05:51:56.535Z,101101.34
2023-01-28T05:54:25.133Z,101106.03
2023-01-28T05:56:52.747Z,101114.81
2023-01-28T05:59:20.244Z,101116.75
2023-01-28T06:01:49.990Z,101126.41
2023-01-28T06:04:19.097Z,101128.06
2023-01-28T06:06:47.760Z,101127.47
2023-01-28T06:09:16.057Z,101131.50
2023-01-28T06:11:44.594Z,101131.19
2023-01-28T06:14:12.463Z,101131.78
2023-01-28T06:16:58.540Z,101140.72
2023-01-28T06:19:46.294Z,101134.38
2023-01-28T06:22:13.788Z,101146.22
2023-01-28T06:24:41.420Z,101140.19
2023-01-28T06:27:08.913Z,101152.41
2023-01-28T06:29:36.532Z,101134.25
2023-01-28T06:32:04.369Z,101158.97
2023-01-28T06:34:32.424Z,101161.38
2023-01-28T06:36:59.807Z,101167.34
2023-01-28T06:39:29.338Z,101159.56
2023-01-28T06:41:56.789Z,101172.00
2023-01-28T06:44:24.680Z,101161.75
2023-01-28T06:46:52.153Z,101169.06
2023-01-28T06:49:20.690Z,101165.63
2023-01-28T06:51:48.442Z,101176.91
2023-01-28T06:54:16.407Z,101162.81
2023-01-28T06:56:44.344Z,101168.03
2023-01-28T06:59:11.952Z,101174.22
2023-01-28T07:01:39.394Z,101169.38
2023-01-28T07:04:07.285Z,101172.34
2023-01-28T07:06:34.753Z,101170.28
2023-01-28T07:09:02.356Z,101179.72
2023-01-28T07:11:29.831Z,101191.28
2023-01-28T07:13:57.304Z,101185.25
2023-01-28T07:16:24.940Z,101183.00
2023-01-28T07:18:52.504Z,101195.41
2023-01-28T07:21:19.916Z,101182.53
2023-01-28T07:23:47.387Z,101177.53
2023-01-28T07:26:15.687Z,101192.28
2023-01-28T07:28:43.079Z,101188.25
2023-01-28T07:31:10.717Z,101180.06
2023-01-28T07:33:38.282Z,101189.28
2023-01-28T07:36:06.179Z,101187.16
2023-01-28T07:38:33.817Z,101187.72
2023-01-28T07:41:01.169Z,101196.00
2023-01-28T07:43:28.484Z,101191.13
2023-01-28T07:45:55.761Z,101191.34
2023-01-28T07:48:23.140Z,101190.88
2023-01-28T07:50:51.850Z,101197.69
2023-01-28T07:53:20.383Z,101197.22
2023-01-28T07:55:47.691Z,101201.06
2023-01-28T07:58:15.056Z,101196.59
2023-01-28T08:00:42.523Z,101210.09
2023-01-28T08:03:17.129Z,101217.84
2023-01-28T08:05:47.028Z,101216.22
2023-01-28T08:08:15.096Z,101222.34
2023-01-28T08:10:44.047Z,101221.00
2023-01-28T08:13:12.757Z,101236.50
2023-01-28T08:15:40.976Z,101232.06
2023-01-28T08:18:10.104Z,101227.03
2023-01-28T08:20:37.550Z,101236.53
2023-01-28T08:23:15.660Z,101237.50
2023-01-28T08:25:43.925Z,101238.97
2023-01-28T08:28:11.988Z,101236.19
2023-01-28T08:30:39.974Z,101246.13
2023-01-28T08:33:09.309Z,101251.34
2023-01-28T08:35:37.218Z,101249.94
2023-01-28T08:38:05.881Z,101250.16
2023-01-28T08:40:34.613Z,101259.88
2023-01-28T08:43:02.616Z,101257.44
2023-01-28T08:45:30.582Z,101259.47
2023-01-28T08:47:59.323Z,101272.97
2023-01-28T08:50:29.691Z,101278.41
2023-01-28T08:52:58.935Z,101280.50
2023-01-28T08:55:27.568Z,101287.09
2023-01-28T08:57:57.515Z,101278.25
2023-01-28T09:00:25.970Z,101287.53
2023-01-28T09:02:54.012Z,101287.16
2023-01-28T09:05:21.634Z,101288.59
2023-01-28T09:07:49.109Z,101283.69
2023-01-28T09:10:17.118Z,101291.47
2023-01-28T09:12:44.698Z,101301.22
2023-01-28T09:15:12.564Z,101299.59
2023-01-28T09:17:40.590Z,101303.97
2023-01-28T09:20:08.828Z,101304.91
2023-01-28T09:22:36.449Z,101300.88
2023-01-28T09:25:04.134Z,101309.50
2023-01-28T09:27:31.943Z,101300.47
2023-01-28T09:30:01.755Z,101297.44
2023-01-28T09:32:29.178Z,101298.31
2023-01-28T09:34:56.640Z,101295.44
2023-01-28T09:37:24.237Z,101305.63
2023-01-28T09:39:51.595Z,101308.78
2023-01-28T09:42:39.581Z,101310.53
2023-01-28T09:45:16.352Z,101309.06
2023-01-28T09:47:53.759Z,101308.88
2023-01-28T09:50:31.728Z,101312.94
2023-01-28T09:53:27.715Z,101307.63
2023-01-28T09:56:03.982Z,101308.44
2023-01-28T09:58:31.905Z,101310.88
2023-01-28T10:01:05.324Z,101316.22
2023-01-28T10:03:50.170Z,101318.47
2023-01-28T10:06:24.443Z,101332.19
2023-01-28T10:09:10.447Z,101323.84
2023-01-28T10:12:28.102Z,101334.06
2023-01-28T10:15:04.445Z,101318.41
2023-01-28T10:17:47.670Z,101321.97
2023-01-28T10:20:36.368Z,101316.00
2023-01-28T10:23:17.036Z,101316.22
2023-01-28T10:25:48.372Z,101311.84
2023-01-28T10:28:20.023Z,101314.06
2023-01-28T10:30:48.291Z,101314.50
2023-01-28T10:33:28.061Z,101313.28
2023-01-28T10:35:56.652Z,101311.94
2023-01-28T10:38:25.865Z,101307.13
2023-01-28T10:40:58.362Z,101310.66
2023-01-28T10:43:29.868Z,101301.19
2023-01-28T10:46:23.921Z,101302.78
2023-01-28T10:48:56.983Z,101293.19
2023-01-28T10:51:36.989Z,101290.81
2023-01-28T10:54:19.322Z,101286.28
2023-01-28T10:56:48.364Z,101279.91
2023-01-28T10:59:36.927Z,101281.56
2023-01-28T11:02:20.051Z,101279.06
2023-01-28T11:04:47.407Z,101266.13
2023-01-28T11:07:20.440Z,101273.28
2023-01-28T11:09:50.674Z,101264.38
2023-01-28T11:12:27.594Z,101270.53
2023-01-28T11:15:03.289Z,101261.41
2023-01-28T11:17:36.012Z,101267.66
2023-01-28T11:20:18.542Z,101267.97
2023-01-28T11:22:46.496Z,101264.25
2023-01-28T11:25:20.104Z,101255.47
2023-01-28T11:27:52.724Z,101248.69
2023-01-28T11:30:35.895Z,101250.94
2023-01-28T11:33:06.892Z,101251.50
2023-01-28T11:35:34.423Z,101247.31
2023-01-28T11:38:01.853Z,101244.41
2023-01-28T11:40:29.656Z,101237.34
2023-01-28T11:42:58.248Z,101239.56
2023-01-28T11:45:44.239Z,101234.63
2023-01-28T11:48:35.151Z,101235.34
2023-01-28T11:51:55.338Z,101228.78
2023-01-28T11:54:28.821Z,101227.59
2023-01-28T11:57:26.740Z,101215.09
2023-01-28T12:00:12.248Z,101222.66
2023-01-28T12:02:51.297Z,101215.81
2023-01-28T12:05:49.747Z,101207.53
2023-01-28T12:08:34.608Z,101207.16
2023-01-28T12:11:10.947Z,101199.44
2023-01-28T12:14:14.759Z,101199.47
2023-01-28T12:17:11.094Z,101195.66
2023-01-28T12:19:41.211Z,101187.69
2023-01-28T12:22:32.891Z,101191.19
2023-01-28T12:25:33.448Z,101182.16
2023-01-28T12:28:22.119Z,101180.38
2023-01-28T12:31:48.541Z,101188.34
2023-01-28T12:34:34.515Z,101184.97
2023-01-28T12:37:17.184Z,101189.13
2023-01-28T12:39:50.576Z,101189.63
2023-01-28T12:42:36.110Z,101188.34
2023-01-28T12:45:24.663Z,101188.03
2023-01-28T12:48:01.639Z,101180.78
2023-01-28T12:50:40.000Z,101185.72
2023-01-28T12:53:26.853Z,101184.72
2023-01-28T12:56:09.263Z,101179.97
2023-01-28T12:59:06.231Z,101180.59
2023-01-28T13:02:12.244Z,101180.06
2023-01-28T13:04:57.155Z,101169.47
2023-01-28T13:07:57.368Z,101172.13
2023-01-28T13:10:29.164Z,101169.56
2023-01-28T13:12:59.172Z,101170.09
2023-01-28T13:15:26.674Z,101171.63
2023-01-28T13:18:35.951Z,101179.25
2023-01-28T13:21:06.111Z,101180.66
2023-01-28T13:23:38.714Z,101175.22
2023-01-28T13:26:18.480Z,101179.06
2023-01-28T13:28:47.434Z,101181.97
2023-01-28T13:31:21.217Z,101186.50
2023-01-28T13:34:02.711Z,101185.34
2023-01-28T13:36:38.187Z,101190.53
2023-01-28T13:39:14.290Z,101194.97
2023-01-28T13:41:50.580Z,101194.84
2023-01-28T13:44:33.004Z,101197.69
2023-01-28T13:47:21.889Z,101193.88
2023-01-28T13:49:55.785Z,101191.47
2023-01-28T13:52:27.591Z,101200.28
2023-01-28T13:55:42.891Z,101194.66
2023-01-28T13:58:36.820Z,101202.19
2023-01-28T14:01:04.121Z,101203.34
2023-01-28T14:03:46.413Z,101201.88
2023-01-28T14:06:38.251Z,101202.78
2023-01-28T14:09:20.284Z,101211.53
2023-01-28T14:11:53.872Z,101211.84
2023-01-28T14:14:27.342Z,101219.75
2023-01-28T14:17:07.401Z,101215.91
2023-01-28T14:19:38.574Z,101216.69
2023-01-28T14:22:10.686Z,101218.81
2023-01-28T14:24:39.699Z,101216.34
2023-01-28T14:27:32.727Z,101220.84
2023-01-28T14:30:29.973Z,101229.00
2023-01-28T14:32:57.864Z,101225.59
2023-01-28T14:35:34.187Z,101222.28
2023-01-28T14:38:09.284Z,101220.84
2023-01-28T14:40:40.236Z,101218.13
2023-01-28T14:43:13.716Z,101223.66
2023-01-28T14:45:59.883Z,101232.25
2023-01-28T14:48:49.431Z,101237.47
2023-01-28T14:51:19.658Z,101235.41
2023-01-28T14:54:05.843Z,101252.31
2023-01-28T14:57:08.597Z,101249.13
2023-01-28T14:59:49.639Z,101247.09
2023-01-28T15:02:23.916Z,101245.53
2023-01-28T15:04:53.008Z,101247.25
2023-01-28T15:07:27.064Z,101248.97
2023-01-28T15:10:05.940Z,101250.16
2023-01-28T15:12:38.995Z,101247.03
2023-01-28T15:15:20.141Z,101248.34
2023-01-28T15:17:48.882Z,101248.84
2023-01-28T15:20:19.343Z,101256.53
2023-01-28T15:22:47.023Z,101254.31
2023-01-28T15:25:26.537Z,101261.06
2023-01-28T15:27:58.877Z,101266.47
2023-01-28T15:30:29.891Z,101261.56
2023-01-28T15:33:03.630Z,101260.91
2023-01-28T15:35:32.694Z,101267.69
2023-01-28T15:38:00.119Z,101269.59
2023-01-28T15:40:30.232Z,101275.31
2023-01-28T15:42:58.951Z,101269.84
2023-01-28T15:45:28.392Z,101285.94
2023-01-28T15:48:05.712Z,101278.53
2023-01-28T15:50:33.129Z,101284.97
2023-01-28T15:53:00.877Z,101285.41
2023-01-28T15:55:35.520Z,101287.53
2023-01-28T15:58:30.305Z,101285.50
2023-01-28T16:01:13.771Z,101297.03
2023-01-28T16:03:44.653Z,101296.09
2023-01-28T16:06:17.494Z,101312.69
2023-01-28T16:08:51.823Z,101312.44
2023-01-28T16:11:26.315Z,101307.59
2023-01-28T16:13:54.453Z,101313.91
2023-01-28T16:16:29.205Z,101311.78
2023-01-28T16:18:56.665Z,101315.34
2023-01-28T16:21:38.019Z,101319.16
2023-01-28T16:24:23.869Z,101326.50
2023-01-28T16:26:58.494Z,101322.78
2023-01-28T16:29:27.708Z,101330.91
2023-01-28T16:31:57.183Z,101325.53
2023-01-28T16:34:27.289Z,101331.22
2023-01-28T16:36:59.776Z,101331.53
2023-01-28T16:39:27.270Z,101336.66
2023-01-28T16:41:57.027Z,101332.66
2023-01-28T16:44:24.438Z,101328.03
2023-01-28T16:46:51.833Z,101343.16
2023-01-28T16:49:19.182Z,101346.41
2023-01-28T16:51:46.552Z,101344.78
2023-01-28T16:54:16.607Z,101352.38
2023-01-28T16:56:46.520Z,101355.59
2023-01-28T16:59:16.318Z,101359.69
2023-01-28T17:01:44.919Z,101367.50
2023-01-28T17:04:13.262Z,101365.31
2023-01-28T17:06:45.236Z,101371.81
2023-01-28T17:09:13.995Z,101380.19
2023-01-28T17:11:41.934Z,101369.41
2023-01-28T17:14:11.018Z,101387.50
2023-01-28T17:16:38.991Z,101390.47
2023-01-28T17:19:06.450Z,101392.34
2023-01-28T17:21:34.134Z,101399.38
2023-01-28T17:24:02.021Z,101400.75
2023-01-28T17:26:29.444Z,101412.06
2023-01-28T17:28:57.052Z,101406.44
2023-01-28T17:31:26.335Z,101414.78
2023-01-28T17:33:55.412Z,101417.47
2023-01-28T17:36:23.929Z,101421.78
2023-01-28T17:38:51.957Z,101422.06
2023-01-28T17:41:19.594Z,101426.38
2023-01-28T17:43:55.180Z,101437.44
2023-01-28T17:46:25.067Z,101436.06
2023-01-28T17:48:52.917Z,101436.06
2023-01-28T17:51:20.453Z,101437.13
2023-01-28T17:53:52.812Z,101433.09
2023-01-28T17:56:26.364Z,101438.22
2023-01-28T17:58:58.833Z,101437.41
2023-01-28T18:01:27.056Z,101443.84
2023-01-28T18:03:55.766Z,101452.47
2023-01-28T18:06:23.322Z,101456.81
2023-01-28T18:08:50.876Z,101461.97
2023-01-28T18:11:20.043Z,101465.97
2023-01-28T18:13:47.353Z,101464.09
2023-01-28T18:16:18.099Z,101478.66
2023-01-28T18:18:46.344Z,101478.94
2023-01-28T18:21:21.768Z,101480.25
2023-01-28T18:23:52.340Z,101481.28
2023-01-28T18:26:19.749Z,101481.28
2023-01-28T18:28:48.383Z,101482.88
2023-01-28T18:31:15.994Z,101483.97
2023-01-28T18:33:43.530Z,101480.97
2023-01-28T18:36:11.215Z,101488.47
2023-01-28T18:38:39.823Z,101491.66
2023-01-28T18:41:07.159Z,101495.72
2023-01-28T18:43:35.531Z,101500.06
2023-01-28T18:46:13.715Z,101501.34
2023-01-28T18:48:41.201Z,101503.97
2023-01-28T18:51:28.462Z,101510.19
2023-01-28T18:54:03.095Z,101513.63
2023-01-28T18:56:31.730Z,101504.63
2023-01-28T18:59:00.977Z,101507.09
2023-01-28T19:01:29.468Z,101510.22
2023-01-28T19:03:58.029Z,101514.81
2023-01-28T19:06:27.581Z,101520.19
2023-01-28T19:09:00.831Z,101524.47
2023-01-28T19:11:30.078Z,101532.00
2023-01-28T19:13:57.831Z,101534.44
2023-01-28T19:16:25.705Z,101543.03
2023-01-28T19:19:00.558Z,101547.91
2023-01-28T19:21:29.946Z,101545.16
2023-01-28T19:24:03.566Z,101548.28
2023-01-28T19:26:31.419Z,101549.34
2023-01-28T19:28:59.449Z,101546.81
2023-01-28T19:31:29.125Z,101547.09
2023-01-28T19:34:00.039Z,101550.00
2023-01-28T19:36:30.272Z,101552.88
2023-01-28T19:39:03.133Z,101554.84
2023-01-28T19:41:30.927Z,101560.72
2023-01-28T19:43:58.884Z,101571.72
2023-01-28T19:46:26.908Z,101568.69
2023-01-28T19:48:54.895Z,101574.09
2023-01-28T19:51:22.832Z,101568.75
2023-01-28T19:53:51.987Z,101572.16
2023-01-28T19:56:21.143Z,101580.25
2023-01-28T19:58:48.884Z,101577.19
2023-01-28T20:01:18.279Z,101574.97
2023-01-28T20:03:46.023Z,101575.31
2023-01-28T20:06:15.976Z,101575.91
2023-01-28T20:08:44.219Z,101588.22
2023-01-28T20:11:16.046Z,101585.91
2023-01-28T20:13:44.353Z,101581.34
2023-01-28T20:16:29.247Z,101580.28
2023-01-28T20:18:59.630Z,101585.66
2023-01-28T20:21:27.777Z,101591.25
2023-01-28T20:23:57.335Z,101586.94
2023-01-28T20:26:28.290Z,101594.75
2023-01-28T20:28:55.765Z,101596.13
2023-01-28T20:31:23.209Z,101608.41
2023-01-28T20:33:50.603Z,101604.03
2023-01-28T20:36:17.989Z,101605.88
2023-01-28T20:38:47.299Z,101617.16
2023-01-28T20:41:17.080Z,101618.72
2023-01-28T20:43:45.416Z,101618.72
2023-01-28T20:46:13.864Z,101632.44
2023-01-28T20:48:41.398Z,101630.28
2023-01-28T20:51:11.601Z,101633.25
2023-01-28T20:53:39.961Z,101635.28
2023-01-28T20:56:09.192Z,101640.25
2023-01-28T20:58:36.759Z,101638.31
2023-01-28T21:01:04.610Z,101645.38
2023-01-28T21:03:32.742Z,101650.19
2023-01-28T21:06:00.815Z,101636.94
2023-01-28T21:08:28.177Z,101648.78
2023-01-28T21:10:56.242Z,101643.72
2023-01-28T21:13:23.615Z,101642.41
2023-01-28T21:15:53.017Z,101645.03
2023-01-28T21:18:20.726Z,101643.72
2023-01-28T21:20:48.677Z,101647.97
2023-01-28T21:23:16.215Z,101658.69
2023-01-28T21:25:46.730Z,101660.31
2023-01-28T21:28:14.216Z,101652.88
2023-01-28T21:30:42.298Z,101658.31
2023-01-28T21:33:09.936Z,101672.91
2023-01-28T21:35:42.181Z,101668.34
2023-01-28T21:38:10.692Z,101669.41
2023-01-28T21:40:38.817Z,101671.09
2023-01-28T21:43:06.160Z,101674.44
2023-01-28T21:45:33.483Z,101670.63
2023-01-28T21:48:00.787Z,101674.13
2023-01-28T21:50:28.122Z,101670.97
2023-01-28T21:52:55.491Z,101676.00
2023-01-28T21:55:22.765Z,101679.03
2023-01-28T21:58:10.066Z,101682.78
2023-01-28T22:00:37.735Z,101692.47
2023-01-28T22:03:05.147Z,101694.00
2023-01-28T22:05:32.480Z,101687.50
2023-01-28T22:07:59.800Z,101688.56
2023-01-28T22:10:27.080Z,101697.94
2023-01-28T22:12:54.407Z,101694.44
2023-01-28T22:15:21.715Z,101706.22
2023-01-28T22:17:49.121Z,101698.34
2023-01-28T22:20:16.895Z,101705.59
2023-01-28T22:22:44.440Z,101706.41
2023-01-28T22:25:11.727Z,101708.69
2023-01-28T22:27:39.026Z,101708.38
2023-01-28T22:30:07.021Z,101707.88
2023-01-28T22:32:34.523Z,101716.19
2023-01-28T22:35:02.991Z,101718.31
2023-01-28T22:37:30.395Z,101718.72
2023-01-28T22:39:57.663Z,101719.19
2023-01-28T22:42:24.987Z,101726.47
2023-01-28T22:44:52.295Z,101719.69
2023-01-28T22:47:19.647Z,101726.94
2023-01-28T22:49:46.941Z,101732.31
2023-01-28T22:52:14.345Z,101733.88
2023-01-28T22:54:41.687Z,101738.75
2023-01-28T22:57:09.133Z,101735.41
2023-01-28T22:59:36.522Z,101731.41
2023-01-28T23:02:03.966Z,101732.38
2023-01-28T23:04:31.293Z,101726.22
2023-01-28T23:06:58.699Z,101731.91
2023-01-28T23:09:26.362Z,101732.66
2023-01-28T23:11:53.743Z,101731.91
2023-01-28T23:14:39.668Z,101732.00
2023-01-28T23:17:27.657Z,101726.03
2023-01-28T23:20:13.853Z,101723.69
2023-01-28T23:22:59.740Z,101728.00
2023-01-28T23:25:27.113Z,101725.81
2023-01-28T23:27:54.467Z,101723.03
2023-01-28T23:30:25.281Z,101734.19
2023-01-28T23:32:56.591Z,101726.19
2023-01-28T23:35:25.980Z,101732.50
2023-01-28T23:37:54.375Z,101732.91
2023-01-28T23:40:24.596Z,101729.44
2023-01-28T23:42:52.578Z,101727.47
2023-01-28T23:45:20.530Z,101730.97
2023-01-28T23:47:48.730Z,101730.38
2023-01-28T23:50:16.642Z,101739.00
2023-01-28T23:52:44.275Z,101730.63
2023-01-28T23:55:11.607Z,101734.44
2023-01-28T23:57:38.968Z,101739.72
